Time;durP1;ratioP1;P1;durP2;ratioP2;P2;SDS_P1;SDS_P2;PMS_P1;PMS_P2;Temp;Humidity;BMP_temperature;BMP_pressure;BME280_temperature;BME280_humidity;BME280_pressure;Samples;Min_cycle;Max_cycle;Signal;HPM_P1;HPM_P2
2023/02/04 00:01:39;;;;;;;227.43;210.20;;;;;;;1.45;79.46;102900.63;5010682;28;20057;-72
2023/02/04 00:04:05;;;;;;;224.57;207.27;;;;;;;1.77;78.51;102906.09;4982388;28;20041;-71
2023/02/04 00:06:31;;;;;;;224.55;207.35;;;;;;;1.88;78.74;102908.44;4996480;28;20205;-71
2023/02/04 00:08:56;;;;;;;207.10;189.20;;;;;;;2.12;77.14;102913.00;5000615;28;20450;-71
2023/02/04 00:11:22;;;;;;;225.60;208.30;;;;;;;2.05;78.83;102914.63;5025041;28;20403;-71
2023/02/04 00:13:50;;;;;;;206.07;188.27;;;;;;;2.17;76.78;102915.16;5001723;28;20057;-69
2023/02/04 00:16:15;;;;;;;207.30;189.35;;;;;;;2.15;77.44;102906.53;5001400;28;20088;-71
2023/02/04 00:18:41;;;;;;;225.07;207.88;;;;;;;2.19;76.21;102918.47;5001862;28;20097;-71
2023/02/04 00:21:06;;;;;;;224.15;207.10;;;;;;;1.81;78.18;102914.50;5001400;28;20029;-70
2023/02/04 00:23:32;;;;;;;224.25;207.07;;;;;;;1.68;79.14;102916.75;5000837;28;20147;-72
2023/02/04 00:25:58;;;;;;;224.30;207.23;;;;;;;1.49;79.07;102928.38;4999705;28;20030;-71
2023/02/04 00:28:23;;;;;;;222.40;205.40;;;;;;;1.40;79.99;102934.59;5005561;28;20049;-72
2023/02/04 00:30:49;;;;;;;206.63;188.73;;;;;;;1.15;81.22;102946.78;5004564;28;20048;-73
2023/02/04 00:33:15;;;;;;;223.20;206.35;;;;;;;1.08;81.29;102957.97;4985410;28;20100;-72
2023/02/04 00:35:42;;;;;;;203.52;186.23;;;;;;;1.29;80.80;102965.56;5000823;28;20078;-72
2023/02/04 00:38:07;;;;;;;206.07;188.40;;;;;;;0.92;81.23;102968.38;4984218;28;20035;-71
2023/02/04 00:40:33;;;;;;;224.38;207.27;;;;;;;1.05;80.84;102973.25;4998495;28;20070;-71
2023/02/04 00:42:58;;;;;;;225.13;207.98;;;;;;;0.95;82.48;102983.06;4996839;28;20025;-71
2023/02/04 00:45:24;;;;;;;206.32;188.73;;;;;;;0.70;82.73;102992.56;5004547;28;20423;-72
2023/02/04 00:47:50;;;;;;;224.35;207.38;;;;;;;0.64;83.04;102990.50;4986761;28;20045;-71
2023/02/04 00:50:16;;;;;;;205.38;187.50;;;;;;;0.58;82.82;103012.19;4981315;28;20042;-73
2023/02/04 00:52:42;;;;;;;204.02;186.60;;;;;;;0.51;83.06;103011.97;4991357;28;20042;-71
2023/02/04 00:55:10;;;;;;;205.50;187.95;;;;;;;0.56;84.14;103019.44;4965467;28;20034;-71
2023/02/04 00:57:36;;;;;;;223.75;206.70;;;;;;;0.94;82.79;103031.53;4995248;28;20038;-71
2023/02/04 01:00:01;;;;;;;207.13;189.48;;;;;;;0.90;82.80;103032.81;4979986;28;20045;-71
2023/02/04 01:02:30;;;;;;;205.52;187.77;;;;;;;1.12;82.34;103045.56;4998809;28;20065;-71
2023/02/04 01:04:56;;;;;;;223.43;206.43;;;;;;;1.25;82.65;103059.22;4981248;28;20042;-70
2023/02/04 01:07:21;;;;;;;202.77;185.40;;;;;;;1.32;82.09;103062.91;5001376;28;20697;-71
2023/02/04 01:09:47;;;;;;;222.23;205.38;;;;;;;1.51;81.04;103069.84;5003000;28;20038;-71
2023/02/04 01:12:13;;;;;;;222.02;205.23;;;;;;;1.58;81.11;103065.63;4989586;28;20046;-71
2023/02/04 01:14:38;;;;;;;203.18;185.73;;;;;;;1.85;79.88;103077.88;5009973;28;20037;-71
2023/02/04 01:17:05;;;;;;;205.23;187.63;;;;;;;1.84;79.39;103078.84;4994602;28;20541;-71
2023/02/04 01:19:30;;;;;;;221.43;204.40;;;;;;;1.64;79.97;103080.84;5025856;28;20037;-70
2023/02/04 01:21:57;;;;;;;204.90;187.50;;;;;;;1.53;79.72;103090.81;4971947;28;20046;-71
2023/02/04 01:24:24;;;;;;;223.48;206.20;;;;;;;1.28;81.37;103095.88;5004130;28;20033;-73
2023/02/04 01:27:08;;;;;;;206.07;188.30;;;;;;;1.38;80.63;103100.25;5003166;28;20033;-73
2023/02/04 01:29:35;;;;;;;205.05;187.10;;;;;;;1.28;80.90;103110.88;5010435;28;20081;-71
2023/02/04 01:32:00;;;;;;;205.85;188.30;;;;;;;1.10;81.59;103124.06;5006167;28;20034;-73
2023/02/04 01:34:26;;;;;;;222.40;205.40;;;;;;;1.11;82.10;103122.25;5001636;28;20022;-71
2023/02/04 01:36:51;;;;;;;206.60;188.82;;;;;;;1.00;82.35;103134.66;4985730;28;20048;-72
2023/02/04 01:39:17;;;;;;;204.82;187.23;;;;;;;1.14;81.96;103133.34;4987743;28;20120;-72
2023/02/04 01:41:45;;;;;;;224.20;207.10;;;;;;;0.99;82.47;103133.00;5002922;28;20188;-70
2023/02/04 01:44:10;;;;;;;205.88;188.38;;;;;;;1.17;82.23;103135.69;4982744;28;20051;-71
2023/02/04 01:46:36;;;;;;;204.38;186.60;;;;;;;1.09;82.70;103140.88;4983892;28;20045;-74
2023/02/04 01:49:03;;;;;;;224.57;207.57;;;;;;;1.01;83.09;103146.06;5016869;28;20033;-71
2023/02/04 01:51:30;;;;;;;221.00;204.18;;;;;;;0.78;83.49;103151.72;4979858;28;20045;-72
2023/02/04 01:53:58;;;;;;;205.38;187.93;;;;;;;0.78;83.92;103150.91;5033795;28;20684;-71
2023/02/04 01:56:26;;;;;;;203.43;186.15;;;;;;;0.74;84.17;103163.53;5012247;28;20499;-71
2023/02/04 01:58:53;;;;;;;204.05;186.43;;;;;;;0.82;83.91;103158.38;5000005;28;20042;-71
2023/02/04 02:01:52;;;;;;;222.27;205.38;;;;;;;0.95;83.78;103154.56;4968832;28;20122;-72
2023/02/04 02:04:30;;;;;;;226.68;209.57;;;;;;;1.20;83.10;103160.94;4949773;28;20795;-71
2023/02/04 02:07:00;;;;;;;223.15;206.25;;;;;;;1.28;83.44;103167.13;4986508;28;20096;-72
2023/02/04 02:09:28;;;;;;;203.02;185.65;;;;;;;1.27;82.58;103165.50;4996544;28;20038;-71
2023/02/04 02:11:53;;;;;;;222.77;205.80;;;;;;;1.34;82.61;103179.75;4995067;28;20581;-72
2023/02/04 02:14:19;;;;;;;221.95;205.05;;;;;;;1.33;82.59;103183.38;4985076;28;20034;-71
2023/02/04 02:16:45;;;;;;;202.38;184.98;;;;;;;1.39;82.77;103196.97;4981095;28;20038;-73
2023/02/04 02:19:14;;;;;;;222.10;205.10;;;;;;;1.45;83.02;103194.56;5030095;28;20514;-70
2023/02/04 02:21:52;;;;;;;201.48;184.38;;;;;;;1.39;82.68;103196.97;4999499;28;20038;-70
2023/02/04 02:24:28;;;;;;;221.65;204.77;;;;;;;1.32;82.89;103192.28;5010794;28;20054;-71
2023/02/04 02:26:56;;;;;;;222.23;205.35;;;;;;;1.45;82.06;103199.00;4996068;28;20061;-72
2023/02/04 02:29:27;;;;;;;201.23;184.07;;;;;;;1.46;82.44;103211.22;4984352;28;20042;-73
2023/02/04 02:31:56;;;;;;;218.93;202.27;;;;;;;1.38;82.68;103211.16;4985534;28;20097;-72
2023/02/04 02:34:29;;;;;;;;;;;;;;;1.24;83.02;103225.69;5026140;28;20542;-72
2023/02/04 02:36:56;;;;;;;225.93;208.73;;;;;;;1.12;83.29;103221.56;5016259;28;19934;-73
2023/02/04 02:39:23;;;;;;;203.48;186.13;;;;;;;0.99;83.99;103228.00;5002484;28;21071;-72
2023/02/04 02:41:49;;;;;;;203.02;185.35;;;;;;;0.81;84.40;103235.88;5035138;28;20528;-72
2023/02/04 02:44:16;;;;;;;218.43;201.93;;;;;;;0.79;84.31;103245.72;4995398;28;20043;-73
2023/02/04 02:46:42;;;;;;;200.95;183.90;;;;;;;0.65;84.72;103253.25;4974021;28;20041;-71
2023/02/04 02:49:16;;;;;;;220.60;204.00;;;;;;;0.53;85.02;103257.84;5000353;28;20034;-72
2023/02/04 02:51:43;;;;;;;219.18;202.38;;;;;;;0.41;85.44;103257.19;5008739;28;20144;-72
2023/02/04 02:54:29;;;;;;;204.55;187.25;;;;;;;0.20;85.46;103267.03;5001051;28;20034;-72
2023/02/04 02:56:59;;;;;;;205.50;187.80;;;;;;;0.21;85.73;103272.19;5001031;28;20529;-73
2023/02/04 02:59:26;;;;;;;202.48;185.20;;;;;;;0.16;85.93;103287.59;5004219;28;20034;-72
2023/02/04 03:01:57;;;;;;;201.68;184.65;;;;;;;0.12;86.16;103288.00;4972171;28;20099;-72
2023/02/04 03:04:26;;;;;;;203.18;185.77;;;;;;;0.10;86.79;103293.41;4998023;28;20077;-71
2023/02/04 03:06:53;;;;;;;204.40;186.93;;;;;;;-0.10;86.53;103292.56;4999271;28;20041;-72
2023/02/04 03:09:19;;;;;;;222.55;205.38;;;;;;;-0.24;86.20;103300.84;5016126;28;20038;-72
2023/02/04 03:11:46;;;;;;;222.32;205.63;;;;;;;-0.31;86.88;103305.81;4999327;28;20846;-73
2023/02/04 03:14:12;;;;;;;206.32;188.60;;;;;;;-0.32;87.09;103308.59;4986524;28;20056;-71
2023/02/04 03:16:39;;;;;;;222.45;205.65;;;;;;;-0.40;87.05;103317.16;4997454;28;20495;-72
2023/02/04 03:19:06;;;;;;;206.32;188.77;;;;;;;-0.48;87.08;103311.72;4995147;28;20033;-73
2023/02/04 03:21:32;;;;;;;223.18;206.18;;;;;;;-0.57;87.50;103313.34;4981212;28;20044;-73
2023/02/04 03:23:58;;;;;;;205.48;187.90;;;;;;;-0.63;87.19;103323.59;4997864;28;20034;-73
2023/02/04 03:26:25;;;;;;;222.50;205.40;;;;;;;-0.69;87.77;103332.84;4999590;28;20084;-72
2023/02/04 03:28:54;;;;;;;205.60;188.02;;;;;;;-0.73;88.33;103341.97;4986321;28;20041;-72
2023/02/04 03:31:20;;;;;;;222.70;205.77;;;;;;;-0.80;88.00;103340.00;4984033;28;20034;-71
2023/02/04 03:33:46;;;;;;;204.05;186.60;;;;;;;-0.91;87.70;103347.00;5001823;28;20057;-72
2023/02/04 03:36:11;;;;;;;225.63;208.52;;;;;;;-0.95;87.51;103348.25;5004170;28;20121;-70
2023/02/04 03:38:37;;;;;;;223.77;206.57;;;;;;;-1.00;87.59;103355.69;4991813;28;20045;-70
2023/02/04 03:41:03;;;;;;;224.38;207.05;;;;;;;-0.98;88.30;103373.94;4990200;28;20644;-71
2023/02/04 03:43:29;;;;;;;205.60;188.05;;;;;;;-0.94;88.31;103381.47;4993508;28;20105;-71
2023/02/04 03:45:54;;;;;;;206.90;189.18;;;;;;;-0.91;88.46;103391.72;5003670;28;20062;-71
2023/02/04 03:48:20;;;;;;;206.63;188.73;;;;;;;-0.91;88.47;103402.25;5009800;28;20029;-71
2023/02/04 03:50:45;;;;;;;223.35;206.25;;;;;;;-0.90;88.85;103406.53;5002948;28;20121;-71
2023/02/04 03:53:12;;;;;;;224.35;207.02;;;;;;;-0.89;88.61;103405.56;5015281;28;20045;-71
2023/02/04 03:55:37;;;;;;;205.60;187.90;;;;;;;-0.81;89.17;103410.22;4987093;28;20038;-71
2023/02/04 03:58:05;;;;;;;225.32;208.13;;;;;;;-0.75;88.85;103422.00;4968309;28;20284;-71
2023/02/04 04:00:31;;;;;;;205.52;188.00;;;;;;;-0.59;88.75;103427.66;4989881;28;20054;-71
2023/02/04 04:02:58;;;;;;;224.02;206.85;;;;;;;-0.50;88.68;103434.75;5000837;28;20127;-71
2023/02/04 04:05:23;;;;;;;224.82;207.68;;;;;;;-0.34;88.46;103427.22;5005058;28;20343;-72
2023/02/04 04:07:50;;;;;;;203.02;185.80;;;;;;;-0.24;88.53;103421.16;4986402;28;20505;-72
2023/02/04 04:10:16;;;;;;;223.57;206.70;;;;;;;-0.01;88.26;103435.78;4989132;28;20517;-72
2023/02/04 04:12:41;;;;;;;204.48;186.90;;;;;;;0.03;88.22;103434.56;4985918;28;20041;-72
2023/02/04 04:15:07;;;;;;;222.43;205.57;;;;;;;0.02;88.25;103434.72;4972746;28;20030;-72
2023/02/04 04:17:33;;;;;;;204.27;186.77;;;;;;;0.02;88.22;103435.53;5002611;28;20136;-72
2023/02/04 04:19:59;;;;;;;205.55;187.95;;;;;;;0.06;88.08;103442.19;5001059;28;20148;-72
2023/02/04 04:22:24;;;;;;;221.52;204.88;;;;;;;0.08;88.38;103456.09;5011411;28;20226;-72
2023/02/04 04:24:50;;;;;;;203.57;186.18;;;;;;;0.13;88.27;103461.75;5006274;28;20542;-72
2023/02/04 04:27:15;;;;;;;223.43;206.32;;;;;;;0.23;88.30;103462.66;5020962;28;20213;-72
2023/02/04 04:29:41;;;;;;;221.10;204.43;;;;;;;0.23;88.13;103478.47;5003761;28;20038;-72
2023/02/04 04:32:08;;;;;;;205.90;188.20;;;;;;;0.31;88.07;103479.59;4987517;28;20391;-72
2023/02/04 04:34:34;;;;;;;221.57;204.57;;;;;;;0.41;88.18;103473.38;5002931;28;20164;-72
2023/02/04 04:37:00;;;;;;;220.27;203.63;;;;;;;0.36;87.78;103478.22;5036072;28;20041;-72
2023/02/04 04:39:28;;;;;;;220.32;203.57;;;;;;;0.33;87.50;103478.47;5000277;28;20033;-73
2023/02/04 04:41:54;;;;;;;220.68;203.98;;;;;;;0.24;87.59;103485.38;5004511;28;20044;-72
2023/02/04 04:44:20;;;;;;;202.95;185.50;;;;;;;0.06;87.60;103473.81;4980992;28;20037;-71
2023/02/04 04:46:45;;;;;;;202.95;185.68;;;;;;;-0.16;87.13;103479.28;4984423;28;20088;-71
2023/02/04 04:49:11;;;;;;;221.52;204.85;;;;;;;-0.40;87.33;103495.38;5004447;28;20480;-71
2023/02/04 04:51:37;;;;;;;202.25;185.07;;;;;;;-0.59;87.29;103490.81;5005453;28;20033;-71
2023/02/04 04:54:02;;;;;;;203.82;186.43;;;;;;;-0.67;87.93;103503.78;5001173;28;20558;-71
2023/02/04 04:56:28;;;;;;;202.98;185.80;;;;;;;-0.82;88.02;103490.91;5003561;28;20056;-72
2023/02/04 04:58:54;;;;;;;203.18;185.85;;;;;;;-0.88;87.96;103504.59;5003967;28;20044;-71
2023/02/04 05:01:21;;;;;;;224.45;207.05;;;;;;;-0.98;88.20;103497.59;5005754;28;20553;-72
2023/02/04 05:03:47;;;;;;;224.25;207.15;;;;;;;-1.02;88.92;103511.94;4999808;28;20034;-72
2023/02/04 05:06:13;;;;;;;225.27;207.95;;;;;;;-1.16;88.01;103513.06;5002187;28;20038;-73
2023/02/04 05:08:38;;;;;;;224.60;207.52;;;;;;;-1.22;88.08;103518.81;5002985;28;20045;-73
2023/02/04 05:11:04;;;;;;;206.45;188.88;;;;;;;-1.30;88.21;103526.50;4987336;28;20495;-71
2023/02/04 05:13:29;;;;;;;206.20;188.60;;;;;;;-1.38;88.27;103527.94;5005245;28;20034;-73
2023/02/04 05:15:55;;;;;;;225.23;208.23;;;;;;;-1.42;88.42;103523.91;5000014;28;20490;-72
2023/02/04 05:18:21;;;;;;;225.05;207.75;;;;;;;-1.45;88.16;103539.91;5002527;28;20060;-72
2023/02/04 05:20:46;;;;;;;206.75;189.13;;;;;;;-1.48;88.58;103555.94;4987895;28;20059;-72
2023/02/04 05:23:12;;;;;;;208.63;190.57;;;;;;;-1.51;88.46;103553.53;5002655;28;20061;-72
2023/02/04 05:25:38;;;;;;;225.75;208.57;;;;;;;-1.54;88.84;103566.09;4996479;28;20487;-72
2023/02/04 05:28:04;;;;;;;224.15;207.02;;;;;;;-1.57;88.78;103561.88;5000889;28;20041;-72
2023/02/04 05:30:30;;;;;;;207.85;189.80;;;;;;;-1.55;88.83;103569.69;5002162;28;20045;-73
2023/02/04 05:32:56;;;;;;;226.25;208.82;;;;;;;-1.61;88.90;103565.72;4990862;28;20468;-73
2023/02/04 05:35:22;;;;;;;210.80;192.50;;;;;;;-1.62;88.72;103569.31;5001158;28;20041;-72
2023/02/04 05:37:47;;;;;;;207.93;190.00;;;;;;;-1.57;89.61;103576.81;4978654;28;20042;-71
2023/02/04 05:40:13;;;;;;;211.30;192.93;;;;;;;-1.59;89.40;103576.94;4987755;28;20039;-73
2023/02/04 05:42:40;;;;;;;208.52;190.55;;;;;;;-1.65;89.04;103578.25;5004664;28;20119;-73
2023/02/04 05:45:06;;;;;;;226.02;208.80;;;;;;;-1.61;89.39;103585.91;5000331;28;20046;-72
2023/02/04 05:47:32;;;;;;;225.75;208.25;;;;;;;-1.65;89.38;103580.06;5003320;28;20094;-71
2023/02/04 05:49:58;;;;;;;226.27;209.00;;;;;;;-1.79;88.68;103588.16;4996779;28;20033;-71
2023/02/04 05:52:23;;;;;;;209.98;192.02;;;;;;;-1.85;89.19;103588.66;4998931;28;20057;-71
2023/02/04 05:54:49;;;;;;;226.93;209.43;;;;;;;-1.82;89.67;103585.78;4987589;28;20037;-72
2023/02/04 05:57:14;;;;;;;211.88;193.85;;;;;;;-1.76;89.84;103601.94;5002332;28;20517;-71
2023/02/04 05:59:40;;;;;;;225.88;208.30;;;;;;;-1.81;89.61;103600.59;5003928;28;20045;-71
2023/02/04 06:02:06;;;;;;;213.55;195.88;;;;;;;-1.84;89.57;103612.16;4998837;28;20038;-71
2023/02/04 06:04:31;;;;;;;211.63;193.52;;;;;;;-1.84;89.52;103616.59;4972903;28;20507;-72
2023/02/04 06:06:57;;;;;;;215.30;197.65;;;;;;;-1.93;89.43;103615.50;5003624;28;20057;-71
2023/02/04 06:09:23;;;;;;;212.35;194.45;;;;;;;-1.94;89.54;103616.47;4990238;28;20034;-72
2023/02/04 06:11:48;;;;;;;215.23;196.93;;;;;;;-1.98;89.83;103618.47;5001802;28;20061;-72
2023/02/04 06:14:14;;;;;;;219.57;201.38;;;;;;;-1.99;89.70;103616.81;5034012;28;20499;-71
2023/02/04 06:16:40;;;;;;;220.05;202.32;;;;;;;-1.98;89.70;103620.25;4988488;28;20122;-72
2023/02/04 06:19:05;;;;;;;220.77;203.13;;;;;;;-2.02;89.05;103637.22;4998892;28;20053;-71
2023/02/04 06:21:31;;;;;;;218.88;201.02;;;;;;;-2.08;89.09;103637.69;4994783;28;20070;-72
2023/02/04 06:23:57;;;;;;;221.50;203.40;;;;;;;-2.13;89.04;103630.13;5002215;28;20087;-71
2023/02/04 06:26:22;;;;;;;219.10;200.77;;;;;;;-2.10;89.78;103640.44;5002388;28;20038;-71
2023/02/04 06:28:50;;;;;;;222.88;205.05;;;;;;;-2.16;89.73;103640.88;4978295;28;20103;-71
2023/02/04 06:31:16;;;;;;;217.77;199.48;;;;;;;-2.10;89.87;103663.19;5000729;28;20632;-71
2023/02/04 06:33:41;;;;;;;217.13;198.88;;;;;;;-2.09;89.98;103670.97;5030931;28;20034;-71
2023/02/04 06:36:07;;;;;;;221.55;203.85;;;;;;;-2.09;89.86;103673.59;4999366;28;20033;-71
2023/02/04 06:38:33;;;;;;;220.82;203.00;;;;;;;-2.08;89.94;103664.78;4987370;28;20073;-70
2023/02/04 06:41:01;;;;;;;222.07;204.23;;;;;;;-2.13;89.73;103666.91;5020168;28;20064;-74
2023/02/04 06:43:27;;;;;;;217.18;199.07;;;;;;;-2.09;89.87;103678.84;5004647;28;20120;-71
2023/02/04 06:45:53;;;;;;;222.48;204.60;;;;;;;-2.08;89.74;103687.56;4989309;28;20034;-72
2023/02/04 06:48:18;;;;;;;221.68;203.90;;;;;;;-2.15;89.60;103681.94;5007473;28;20033;-72
2023/02/04 06:50:44;;;;;;;219.27;201.25;;;;;;;-2.03;90.11;103695.94;4989314;28;20042;-71
2023/02/04 06:56:01;;;;;;;216.30;198.52;;;;;;;-1.90;89.90;103701.09;5003525;28;20049;-73
2023/02/04 06:58:26;;;;;;;222.57;204.57;;;;;;;-1.85;89.56;103704.22;5003188;28;20037;-71
2023/02/04 07:00:52;;;;;;;219.18;200.95;;;;;;;-1.75;89.74;103715.75;5028254;28;20439;-72
2023/02/04 07:03:21;;;;;;;223.07;205.15;;;;;;;-1.75;89.44;103711.31;5004285;28;20674;-70
2023/02/04 07:05:46;;;;;;;217.60;199.50;;;;;;;-1.68;89.50;103722.19;5000850;28;20049;-71
2023/02/04 07:08:12;;;;;;;216.25;198.43;;;;;;;-1.59;89.32;103716.25;5004419;28;20693;-71
2023/02/04 07:10:38;;;;;;;224.02;205.85;;;;;;;-1.55;89.20;103728.22;4986792;28;20052;-71
2023/02/04 07:13:03;;;;;;;217.77;199.77;;;;;;;-1.58;89.13;103728.41;4985160;28;20052;-71
2023/02/04 07:15:30;;;;;;;222.60;204.82;;;;;;;-1.57;88.99;103739.78;4968691;28;20089;-71
2023/02/04 07:17:56;;;;;;;222.38;204.50;;;;;;;-1.47;88.83;103741.59;5002780;28;20460;-72
2023/02/04 07:20:22;;;;;;;222.07;204.30;;;;;;;-1.41;88.83;103746.41;5002008;28;20484;-71
2023/02/04 07:22:47;;;;;;;218.35;200.35;;;;;;;-1.47;88.96;103749.47;5001656;28;20057;-71
2023/02/04 07:25:14;;;;;;;221.93;204.10;;;;;;;-1.42;89.17;103759.66;4998669;28;20113;-71
2023/02/04 07:27:40;;;;;;;217.55;199.68;;;;;;;-1.47;88.85;103756.53;5001793;28;20029;-71
2023/02/04 07:30:06;;;;;;;218.18;200.15;;;;;;;-1.45;88.95;103765.97;5001101;28;20041;-71
2023/02/04 07:32:32;;;;;;;218.90;200.90;;;;;;;-1.40;88.79;103769.09;4992407;28;20104;-72
2023/02/04 07:35:04;;;;;;;215.57;197.68;;;;;;;-1.36;88.76;103759.16;5002445;28;20499;-72
2023/02/04 07:37:30;;;;;;;216.77;198.73;;;;;;;-1.34;88.73;103769.59;5001123;28;20450;-73
2023/02/04 07:39:58;;;;;;;224.57;207.18;;;;;;;-1.23;88.89;103769.59;5001678;28;20112;-73
2023/02/04 07:42:24;;;;;;;216.13;198.07;;;;;;;-1.14;88.36;103774.16;4984989;28;20702;-72
2023/02/04 07:44:57;;;;;;;221.35;203.63;;;;;;;-1.00;88.85;103776.56;4982401;28;20037;-72
2023/02/04 07:47:23;;;;;;;216.00;197.90;;;;;;;-0.97;88.44;103780.72;4999599;28;20065;-72
2023/02/04 07:49:49;;;;;;;226.82;209.38;;;;;;;-0.94;88.50;103770.00;4987777;28;20795;-71
2023/02/04 07:52:15;;;;;;;211.77;193.38;;;;;;;-0.87;88.05;103785.19;5000599;28;20030;-71
2023/02/04 07:54:40;;;;;;;210.40;192.60;;;;;;;-0.84;88.05;103786.72;4982972;28;20058;-71
2023/02/04 07:57:06;;;;;;;227.88;210.38;;;;;;;-0.72;88.20;103790.19;5018828;28;20095;-73
2023/02/04 07:59:31;;;;;;;211.00;193.05;;;;;;;-0.55;88.18;103787.88;4999694;28;20364;-71
2023/02/04 08:01:57;;;;;;;225.98;208.60;;;;;;;-0.42;87.29;103802.72;5004259;28;20103;-71
2023/02/04 08:04:23;;;;;;;208.30;190.57;;;;;;;-0.24;87.04;103798.63;5000454;28;20047;-73
2023/02/04 08:06:48;;;;;;;208.57;190.57;;;;;;;-0.16;88.03;103793.56;5002079;28;20038;-72
2023/02/04 08:09:14;;;;;;;209.82;191.48;;;;;;;-0.10;87.65;103800.16;5001454;28;20038;-72
2023/02/04 08:11:40;;;;;;;225.55;208.20;;;;;;;-0.11;86.23;103801.94;4972764;28;20541;-72
2023/02/04 08:14:05;;;;;;;208.90;191.13;;;;;;;-0.06;86.28;103801.59;5027690;28;20041;-71
2023/02/04 08:16:31;;;;;;;208.98;191.02;;;;;;;-0.08;86.19;103801.69;5007315;28;21203;-71
2023/02/04 08:18:57;;;;;;;228.32;210.57;;;;;;;-0.03;87.41;103796.03;5007810;28;20750;-73
2023/02/04 08:21:22;;;;;;;211.70;193.50;;;;;;;0.06;86.07;103802.34;4998922;28;20042;-71
2023/02/04 08:23:48;;;;;;;227.15;209.75;;;;;;;0.25;85.61;103798.09;5010247;28;20033;-72
2023/02/04 08:26:14;;;;;;;228.50;210.90;;;;;;;0.40;85.07;103810.97;4986847;28;20050;-71
2023/02/04 08:28:39;;;;;;;211.23;192.85;;;;;;;0.55;85.18;103809.72;5005315;28;20044;-71
2023/02/04 08:31:05;;;;;;;229.43;211.75;;;;;;;0.59;84.22;103807.63;5007915;28;20078;-71
2023/02/04 08:33:31;;;;;;;209.73;191.85;;;;;;;0.77;84.61;103811.38;5008052;28;20038;-70
2023/02/04 08:35:57;;;;;;;207.00;189.18;;;;;;;0.78;83.64;103816.50;4998673;28;20060;-72
2023/02/04 08:38:22;;;;;;;224.73;207.63;;;;;;;0.71;81.94;103818.00;5019500;28;20069;-71
2023/02/04 08:40:48;;;;;;;206.40;188.77;;;;;;;1.04;81.76;103814.31;4987397;28;20050;-71
2023/02/04 08:43:13;;;;;;;225.05;207.85;;;;;;;1.07;81.26;103821.13;5001613;28;20030;-71
2023/02/04 08:45:39;;;;;;;209.30;191.30;;;;;;;1.03;81.37;103819.72;4984873;28;20177;-72
2023/02/04 08:48:06;;;;;;;223.75;206.85;;;;;;;1.33;78.50;103832.06;5005890;28;20041;-72
2023/02/04 08:50:34;;;;;;;206.70;189.10;;;;;;;1.28;79.66;103819.25;5005255;28;20061;-71
2023/02/04 08:53:00;;;;;;;206.48;188.93;;;;;;;1.47;79.43;103823.78;5002487;28;20041;-72
2023/02/04 08:55:26;;;;;;;226.40;209.20;;;;;;;1.49;78.49;103823.66;4992169;28;20038;-71
2023/02/04 08:57:51;;;;;;;206.02;188.32;;;;;;;1.56;77.47;103824.81;5018969;28;20033;-71
2023/02/04 09:00:17;;;;;;;224.70;207.32;;;;;;;1.65;77.23;103837.22;5004406;28;20133;-72
2023/02/04 09:02:43;;;;;;;224.10;206.95;;;;;;;1.86;75.96;103830.03;4987982;28;20406;-72
2023/02/04 09:05:08;;;;;;;224.98;207.85;;;;;;;1.91;77.80;103833.09;5002909;28;20037;-75
2023/02/04 09:07:34;;;;;;;207.93;190.27;;;;;;;2.13;75.73;103837.28;5007860;28;20033;-71
2023/02/04 09:10:00;;;;;;;204.27;186.82;;;;;;;1.99;76.08;103844.78;4999440;28;20268;-72
2023/02/04 09:12:25;;;;;;;224.25;207.27;;;;;;;2.05;75.55;103849.53;4987803;28;20038;-73
2023/02/04 09:14:54;;;;;;;206.27;188.70;;;;;;;2.25;75.39;103851.22;4985594;28;20101;-72
2023/02/04 09:17:19;;;;;;;225.35;208.20;;;;;;;2.37;73.76;103851.91;4985336;28;20804;-72
2023/02/04 09:19:45;;;;;;;224.32;207.23;;;;;;;2.32;74.25;103857.63;4999566;28;20392;-73
2023/02/04 09:22:12;;;;;;;223.63;206.52;;;;;;;2.43;72.26;103852.19;4989564;28;20115;-72
2023/02/04 09:24:37;;;;;;;223.13;206.13;;;;;;;2.50;73.25;103855.09;5008714;28;20041;-72
2023/02/04 09:27:03;;;;;;;205.43;187.88;;;;;;;2.56;73.01;103859.00;4988412;28;20210;-72
2023/02/04 09:29:29;;;;;;;222.90;205.68;;;;;;;2.68;71.15;103871.13;5018416;28;20033;-72
2023/02/04 09:31:54;;;;;;;223.27;206.38;;;;;;;2.61;71.94;103870.84;4984890;28;20057;-72
2023/02/04 09:34:20;;;;;;;222.23;205.30;;;;;;;2.46;72.96;103866.97;5007943;28;20053;-72
2023/02/04 09:36:45;;;;;;;222.63;205.80;;;;;;;2.53;72.75;103869.88;5003919;28;20038;-72
2023/02/04 09:39:11;;;;;;;204.10;186.35;;;;;;;2.57;72.28;103871.25;5000275;28;20030;-72
2023/02/04 09:41:41;;;;;;;224.50;207.30;;;;;;;2.59;72.34;103869.34;4985970;28;20116;-72
2023/02/04 09:44:14;;;;;;;223.98;207.10;;;;;;;2.51;72.81;103877.09;4998708;28;20441;-72
2023/02/04 09:46:46;;;;;;;204.02;186.77;;;;;;;2.45;71.59;103876.72;5002087;28;20040;-72
2023/02/04 09:49:12;;;;;;;221.02;204.23;;;;;;;2.49;71.93;103868.47;5009569;28;20411;-72
2023/02/04 09:51:37;;;;;;;204.73;187.40;;;;;;;2.41;71.98;103877.94;4998796;28;20030;-72
2023/02/04 09:54:15;;;;;;;203.57;186.15;;;;;;;2.55;71.62;103873.22;4986192;28;20053;-72
2023/02/04 09:56:41;;;;;;;204.25;186.80;;;;;;;2.58;71.84;103873.78;4984228;28;20046;-72
2023/02/04 09:59:21;;;;;;;221.30;204.45;;;;;;;2.61;71.27;103880.59;4995273;28;20041;-72
2023/02/04 10:01:55;;;;;;;223.30;206.20;;;;;;;2.67;71.32;103885.34;4975858;28;20113;-72
2023/02/04 10:04:21;;;;;;;204.68;187.27;;;;;;;2.62;70.86;103884.91;5002658;28;20033;-72
2023/02/04 10:06:47;;;;;;;204.30;186.85;;;;;;;2.68;71.65;103890.47;4975679;28;20045;-72
2023/02/04 10:09:15;;;;;;;204.07;186.40;;;;;;;2.76;71.06;103889.78;5009744;28;20026;-71
2023/02/04 10:11:42;;;;;;;203.90;186.52;;;;;;;2.76;70.58;103892.44;5004651;28;20120;-71
2023/02/04 10:14:19;;;;;;;204.02;186.63;;;;;;;2.82;71.03;103897.16;5003996;28;20040;-72
2023/02/04 10:16:56;;;;;;;202.52;185.27;;;;;;;2.85;70.59;103902.19;5004312;28;20046;-74
2023/02/04 10:19:22;;;;;;;201.98;184.75;;;;;;;3.03;70.25;103904.09;5030479;28;20038;-72
2023/02/04 10:21:50;;;;;;;219.40;202.63;;;;;;;2.90;70.20;103915.81;5001836;28;20051;-72
2023/02/04 10:24:19;;;;;;;223.98;206.85;;;;;;;2.97;69.41;103914.28;5001363;28;20033;-72
2023/02/04 10:26:44;;;;;;;202.95;185.85;;;;;;;3.06;69.26;103914.41;4999135;28;20415;-72
2023/02/04 10:29:23;;;;;;;202.05;184.85;;;;;;;3.12;69.34;103913.84;4972864;28;20030;-72
2023/02/04 10:31:50;;;;;;;202.93;185.68;;;;;;;3.12;69.55;103916.50;4985484;28;20038;-71
2023/02/04 10:34:20;;;;;;;217.90;201.45;;;;;;;3.32;68.87;103909.31;5003569;28;20119;-71
2023/02/04 10:36:49;;;;;;;218.05;201.55;;;;;;;3.70;68.06;103918.97;4985445;28;20550;-71
2023/02/04 10:39:19;;;;;;;201.35;184.30;;;;;;;3.79;66.83;103902.16;5001744;28;20045;-71
2023/02/04 10:41:53;;;;;;;200.32;183.40;;;;;;;3.82;67.91;103909.84;4996515;28;20073;-71
2023/02/04 10:44:24;;;;;;;214.48;198.27;;;;;;;3.87;66.79;103904.09;4988390;28;20348;-71
2023/02/04 10:47:07;;;;;;;195.13;178.32;;;;;;;4.07;65.34;103919.75;4999233;28;20138;-71
2023/02/04 10:49:33;;;;;;;214.77;198.75;;;;;;;3.82;65.75;103917.78;4998634;28;20038;-71
2023/02/04 10:52:01;;;;;;;214.40;198.20;;;;;;;3.74;66.00;103923.00;5003334;28;20454;-72
2023/02/04 10:54:36;;;;;;;212.65;196.68;;;;;;;3.83;65.46;103927.41;5012314;28;20030;-72
2023/02/04 10:57:25;;;;;;;213.68;197.63;;;;;;;4.36;64.36;103932.00;4997287;28;20096;-71
2023/02/04 10:59:54;;;;;;;212.13;196.32;;;;;;;4.54;62.83;103934.63;4996213;28;20069;-71
2023/02/04 11:02:32;;;;;;;195.02;178.63;;;;;;;4.20;63.56;103932.66;5015043;28;20030;-71